Time;durP1;ratioP1;P1;durP2;ratioP2;P2;SDS_P1;SDS_P2;PMS_P1;PMS_P2;Temp;Humidity;BMP_temperature;BMP_pressure;BME280_temperature;BME280_humidity;BME280_pressure;Samples;Min_cycle;Max_cycle;Signal;HPM_P1;HPM_P2
2023/03/27 00:01:24;;;;;;;0.90;0.90;;;;;;;2.95;100.00;97428.44;4923676;29;20057;-93
2023/03/27 00:03:54;;;;;;;0.90;0.90;;;;;;;2.89;100.00;97418.72;4924293;29;20502;-91
2023/03/27 00:06:26;;;;;;;0.90;0.90;;;;;;;2.93;100.00;97425.19;4923179;29;20248;-91
2023/03/27 00:08:53;;;;;;;0.80;0.80;;;;;;;2.78;100.00;97404.34;4923821;29;20082;-94
2023/03/27 00:11:20;;;;;;;0.90;0.90;;;;;;;2.90;100.00;97417.69;4956265;29;20052;-92
2023/03/27 00:13:53;;;;;;;0.80;0.80;;;;;;;2.93;100.00;97432.38;4924068;29;20141;-92
2023/03/27 00:16:22;;;;;;;0.80;0.80;;;;;;;2.99;100.00;97429.63;4924905;29;20047;-92
2023/03/27 00:18:50;;;;;;;0.80;0.80;;;;;;;3.00;100.00;97433.06;4925714;29;20062;-94
2023/03/27 00:21:18;;;;;;;0.80;0.80;;;;;;;3.01;100.00;97446.19;4948498;29;20047;-93
2023/03/27 00:23:45;;;;;;;0.90;0.90;;;;;;;2.93;100.00;97422.53;4959895;29;20147;-91
2023/03/27 00:26:13;;;;;;;0.80;0.80;;;;;;;2.95;100.00;97427.63;4924252;29;20051;-92
2023/03/27 00:28:40;;;;;;;0.80;0.80;;;;;;;2.86;100.00;97421.03;4909054;29;20055;-90
2023/03/27 00:31:12;;;;;;;0.70;0.70;;;;;;;2.90;100.00;97431.00;4939823;29;20102;-92
2023/03/27 00:33:51;;;;;;;0.90;0.90;;;;;;;2.87;100.00;97441.31;4957841;29;20094;-92
2023/03/27 00:36:21;;;;;;;0.90;0.90;;;;;;;2.77;100.00;97423.25;4956458;29;20142;-93
2023/03/27 00:38:51;;;;;;;0.80;0.80;;;;;;;2.84;100.00;97445.28;4924085;29;20055;-92
2023/03/27 00:41:20;;;;;;;0.80;0.80;;;;;;;2.82;100.00;97440.16;4908886;29;20058;-92
2023/03/27 00:43:49;;;;;;;0.80;0.80;;;;;;;2.81;100.00;97419.91;4923957;29;20083;-93
2023/03/27 00:46:41;;;;;;;0.80;0.80;;;;;;;2.90;100.00;97449.66;4909013;29;20054;-93
2023/03/27 00:49:11;;;;;;;0.82;0.82;;;;;;;2.78;100.00;97430.19;4923690;29;20134;-93
2023/03/27 00:51:40;;;;;;;0.90;0.90;;;;;;;2.78;100.00;97432.88;4906278;29;20051;-93
2023/03/27 00:54:08;;;;;;;0.80;0.80;;;;;;;2.85;100.00;97443.41;4938910;29;20078;-92
2023/03/27 00:56:37;;;;;;;0.77;0.77;;;;;;;2.77;100.00;97418.72;4956309;29;20066;-91
2023/03/27 00:59:14;;;;;;;0.90;0.90;;;;;;;2.81;100.00;97427.06;4938540;29;20048;-93
2023/03/27 01:01:46;;;;;;;0.85;0.85;;;;;;;2.82;100.00;97431.38;4941743;29;20051;-91
2023/03/27 01:04:19;;;;;;;0.70;0.70;;;;;;;2.76;100.00;97433.13;4909504;29;20063;-91
2023/03/27 01:06:50;;;;;;;0.80;0.80;;;;;;;2.68;100.00;97424.66;4908347;29;20043;-92
2023/03/27 01:09:20;;;;;;;0.80;0.80;;;;;;;2.69;100.00;97434.28;4907853;29;20677;-90
2023/03/27 01:12:22;;;;;;;0.90;0.90;;;;;;;2.79;100.00;97445.97;4923992;29;20051;-92
2023/03/27 01:15:25;;;;;;;0.80;0.80;;;;;;;2.66;100.00;97430.22;4924231;29;20057;-92
2023/03/27 01:18:05;;;;;;;0.80;0.80;;;;;;;2.72;100.00;97447.13;4934096;29;20075;-92
2023/03/27 01:21:05;;;;;;;0.90;0.90;;;;;;;2.69;100.00;97442.28;4939910;29;20395;-91
2023/03/27 01:24:20;;;;;;;0.90;0.90;;;;;;;2.73;100.00;97435.41;4937821;29;20043;-92
2023/03/27 01:26:56;;;;;;;0.80;0.80;;;;;;;2.69;100.00;97443.06;4867398;29;20058;-92
2023/03/27 01:29:49;;;;;;;0.82;0.82;;;;;;;2.70;100.00;97449.19;4854640;29;20724;-92
2023/03/27 01:32:27;;;;;;;0.80;0.80;;;;;;;2.63;100.00;97428.00;4862916;29;20061;-91
2023/03/27 01:35:30;;;;;;;0.80;0.80;;;;;;;2.53;100.00;97412.63;4863873;29;20060;-92
2023/03/27 01:38:06;;;;;;;0.85;0.85;;;;;;;2.57;100.00;97437.72;4876660;29;20052;-91
2023/03/27 01:41:09;;;;;;;0.90;0.90;;;;;;;2.49;100.00;97439.94;4876981;29;20132;-92
2023/03/27 01:43:44;;;;;;;0.80;0.80;;;;;;;2.30;100.00;97420.56;4861915;29;20455;-91
2023/03/27 01:46:30;;;;;;;0.90;0.90;;;;;;;2.33;100.00;97430.75;4861225;29;20073;-91
2023/03/27 01:49:09;;;;;;;0.80;0.80;;;;;;;2.33;100.00;97441.41;4847489;29;20762;-89
2023/03/27 01:51:43;;;;;;;0.80;0.80;;;;;;;2.23;100.00;97417.22;4877407;29;20053;-90
2023/03/27 01:54:24;;;;;;;0.80;0.80;;;;;;;2.24;100.00;97438.28;4861192;29;20266;-91
2023/03/27 01:57:01;;;;;;;0.90;0.90;;;;;;;2.20;100.00;97438.97;4860658;29;20075;-92
2023/03/27 01:59:32;;;;;;;0.90;0.90;;;;;;;2.07;100.00;97424.00;4860965;29;20052;-91
2023/03/27 02:02:03;;;;;;;0.90;0.90;;;;;;;2.03;100.00;97421.00;4847667;29;20061;-94
2023/03/27 02:04:43;;;;;;;0.80;0.80;;;;;;;2.08;100.00;97420.34;4940691;29;20066;-91
2023/03/27 02:07:12;;;;;;;0.90;0.90;;;;;;;2.20;100.00;97436.31;4938242;29;20130;-92
2023/03/27 02:09:52;;;;;;;0.80;0.80;;;;;;;2.08;100.00;97413.16;4907283;29;20055;-92
2023/03/27 02:12:23;;;;;;;0.90;0.90;;;;;;;2.17;100.00;97432.25;4937524;29;20079;-92
2023/03/27 02:14:54;;;;;;;0.90;0.90;;;;;;;2.17;100.00;97438.38;4922344;29;20051;-92
2023/03/27 02:17:49;;;;;;;0.80;0.80;;;;;;;2.10;100.00;97424.38;4936627;29;20047;-90
2023/03/27 02:20:18;;;;;;;0.90;0.90;;;;;;;2.06;100.00;97431.19;4927901;29;20055;-92
2023/03/27 02:22:49;;;;;;;0.80;0.80;;;;;;;2.02;100.00;97427.34;4943133;29;20051;-92
2023/03/27 02:25:40;;;;;;;0.90;0.90;;;;;;;2.04;100.00;97443.91;4922083;29;20066;-92
2023/03/27 02:28:28;;;;;;;0.90;0.90;;;;;;;1.97;100.00;97456.50;4954929;29;20050;-92
2023/03/27 02:31:24;;;;;;;1.00;1.00;;;;;;;1.80;100.00;97452.84;4936671;29;20109;-92
2023/03/27 02:34:28;;;;;;;1.00;1.00;;;;;;;1.78;100.00;97460.28;4938753;29;20102;-89
2023/03/27 02:37:28;;;;;;;0.80;0.80;;;;;;;1.66;100.00;97453.03;4921832;29;20391;-93
2023/03/27 02:41:07;;;;;;;0.80;0.80;;;;;;;1.69;100.00;97459.75;4926459;29;20047;-91
2023/03/27 02:44:14;;;;;;;0.90;0.90;;;;;;;1.67;100.00;97453.84;4921177;29;20070;-89
2023/03/27 02:47:29;;;;;;;0.85;0.85;;;;;;;1.60;100.00;97455.81;4923853;29;20514;-92
2023/03/27 02:50:06;;;;;;;1.00;1.00;;;;;;;1.63;100.00;97447.38;4937828;29;20057;-91
2023/03/27 02:52:46;;;;;;;1.00;1.00;;;;;;;1.70;100.00;97464.06;4938378;29;20165;-91
2023/03/27 02:55:33;;;;;;;0.90;0.90;;;;;;;1.67;100.00;97454.69;4906956;29;20055;-91
2023/03/27 02:58:06;;;;;;;0.80;0.80;;;;;;;1.68;100.00;97453.63;4906763;29;20118;-93
2023/03/27 03:00:58;;;;;;;1.00;1.00;;;;;;;1.59;100.00;97452.31;4901806;29;20055;-92
2023/03/27 03:03:52;;;;;;;0.90;0.90;;;;;;;1.66;100.00;97455.69;4921517;29;20051;-91
2023/03/27 03:07:05;;;;;;;0.90;0.90;;;;;;;1.74;100.00;97467.88;4954665;29;20059;-91
2023/03/27 03:09:36;;;;;;;0.90;0.90;;;;;;;1.63;100.00;97458.00;4941276;28;20075;-92
2023/03/27 03:12:08;;;;;;;0.82;0.82;;;;;;;1.68;100.00;97466.94;4922870;29;20048;-92
2023/03/27 03:14:44;;;;;;;0.80;0.80;;;;;;;1.62;100.00;97465.19;4968171;28;20074;-92
2023/03/27 03:17:13;;;;;;;1.00;1.00;;;;;;;1.61;100.00;97452.91;4935504;29;20062;-92
2023/03/27 03:19:40;;;;;;;0.90;0.90;;;;;;;1.76;100.00;97459.69;4926323;29;20090;-92
2023/03/27 03:22:13;;;;;;;0.90;0.90;;;;;;;1.78;100.00;97461.06;4911477;29;20078;-93
2023/03/27 03:24:40;;;;;;;1.00;1.00;;;;;;;1.82;100.00;97466.75;4926210;29;20050;-93
2023/03/27 03:27:14;;;;;;;1.00;1.00;;;;;;;1.76;100.00;97454.34;4925708;29;20047;-93
2023/03/27 03:30:06;;;;;;;0.90;0.90;;;;;;;1.79;100.00;97464.53;4930269;29;20095;-93
2023/03/27 03:32:40;;;;;;;0.80;0.80;;;;;;;1.75;100.00;97453.56;4894519;29;20054;-93
2023/03/27 03:35:08;;;;;;;0.90;0.90;;;;;;;1.80;100.00;97455.50;4924919;29;20047;-92
2023/03/27 03:37:37;;;;;;;1.00;1.00;;;;;;;1.86;100.00;97465.25;4895953;29;20047;-93
2023/03/27 03:40:11;;;;;;;0.90;0.90;;;;;;;1.94;100.00;97470.25;4910901;29;20514;-92
2023/03/27 03:42:47;;;;;;;;;;;;;;;1.93;100.00;97472.13;4926671;29;20074;-91
2023/03/27 03:45:19;;;;;;;0.73;0.73;;;;;;;1.78;100.00;97454.94;4920836;29;19907;-91
2023/03/27 03:47:46;;;;;;;0.90;0.90;;;;;;;1.76;100.00;97449.84;4922693;29;20159;-91
2023/03/27 03:50:13;;;;;;;0.88;0.88;;;;;;;1.85;100.00;97471.59;4949036;29;20047;-91
2023/03/27 03:52:42;;;;;;;0.90;0.90;;;;;;;1.88;100.00;97476.50;4955962;29;20050;-89
2023/03/27 03:55:10;;;;;;;0.90;0.90;;;;;;;1.92;100.00;97477.66;4966720;29;20043;-91
2023/03/27 03:57:39;;;;;;;1.00;1.00;;;;;;;1.86;100.00;97463.41;4924975;29;20086;-89
2023/03/27 04:00:11;;;;;;;0.90;0.90;;;;;;;1.95;100.00;97470.03;4941522;29;20087;-91
2023/03/27 04:02:51;;;;;;;0.90;0.90;;;;;;;1.95;100.00;97464.72;4926444;29;20130;-91
2023/03/27 04:05:19;;;;;;;0.80;0.80;;;;;;;1.94;100.00;97446.31;4908882;29;20085;-92
2023/03/27 04:07:51;;;;;;;0.90;0.90;;;;;;;2.03;100.00;97444.97;4940590;29;20071;-91
2023/03/27 04:10:40;;;;;;;0.90;0.90;;;;;;;2.13;100.00;97442.56;4966827;29;20413;-89
2023/03/27 04:13:23;;;;;;;0.90;0.90;;;;;;;2.25;100.00;97455.06;4929024;29;20069;-90
2023/03/27 04:16:00;;;;;;;0.85;0.85;;;;;;;2.29;100.00;97453.56;4927071;29;20087;-89
2023/03/27 04:19:29;;;;;;;0.80;0.80;;;;;;;2.34;100.00;97453.69;4903392;29;20438;-90
2023/03/27 04:21:41;;;;;;;0.77;0.77;;;;;;;2.26;100.00;97433.53;4919662;29;20111;-91
2023/03/27 04:24:12;;;;;;;0.90;0.90;;;;;;;2.15;100.00;97439.66;4929846;29;20536;-91
2023/03/27 04:26:43;;;;;;;0.90;0.90;;;;;;;2.31;100.00;97462.16;4912590;29;20075;-92
2023/03/27 04:29:13;;;;;;;1.00;1.00;;;;;;;2.32;100.00;97458.44;4953038;29;20525;-93
2023/03/27 04:31:59;;;;;;;;;;;;;;;2.38;100.00;97463.66;4943285;29;20047;-93
2023/03/27 04:34:41;;;;;;;0.90;0.90;;;;;;;2.30;100.00;97463.16;4934852;29;19926;-88
2023/03/27 04:37:31;;;;;;;0.82;0.82;;;;;;;2.30;100.00;97468.50;4946523;29;20482;-89
2023/03/27 04:40:24;;;;;;;0.90;0.90;;;;;;;2.24;100.00;97472.88;4941667;29;20047;-89
2023/03/27 04:42:51;;;;;;;0.90;0.90;;;;;;;2.08;100.00;97458.41;4938564;29;20047;-90
2023/03/27 04:45:24;;;;;;;0.80;0.80;;;;;;;2.04;100.00;97464.41;4935943;29;20074;-91
2023/03/27 04:47:53;;;;;;;0.90;0.90;;;;;;;2.08;100.00;97469.03;4562671;29;10000280;-91
2023/03/27 04:50:21;;;;;;;0.90;0.90;;;;;;;2.10;100.00;97472.28;4898459;29;20058;-87
2023/03/27 04:52:50;;;;;;;0.90;0.90;;;;;;;2.13;100.00;97471.03;4919444;29;20047;-87
2023/03/27 04:55:19;;;;;;;0.90;0.90;;;;;;;2.11;100.00;97451.81;4919118;29;20110;-94
2023/03/27 04:57:56;;;;;;;0.90;0.90;;;;;;;2.20;100.00;97473.56;4938279;29;20126;-85
2023/03/27 05:00:23;;;;;;;0.90;0.90;;;;;;;2.04;100.00;97459.88;4904701;29;20560;-90
2023/03/27 05:03:09;;;;;;;0.90;0.90;;;;;;;2.19;100.00;97471.97;4923749;29;20478;-88
2023/03/27 05:06:15;;;;;;;1.00;1.00;;;;;;;2.26;100.00;97476.13;4932372;29;20523;-87
2023/03/27 05:08:42;;;;;;;0.90;0.90;;;;;;;2.23;100.00;97486.41;4928967;29;20043;-89
2023/03/27 05:11:18;;;;;;;0.90;0.90;;;;;;;2.21;100.00;97461.91;4939831;29;20480;-92
2023/03/27 05:13:49;;;;;;;0.80;0.80;;;;;;;2.06;100.00;97455.16;4923119;29;20075;-90
2023/03/27 05:16:21;;;;;;;0.90;0.90;;;;;;;2.20;100.00;97465.59;4907797;29;20083;-90
2023/03/27 05:18:53;;;;;;;0.90;0.90;;;;;;;2.23;100.00;97468.63;4943393;29;20043;-89
2023/03/27 05:21:20;;;;;;;0.90;0.90;;;;;;;2.17;100.00;97465.00;4890715;29;20051;-91
2023/03/27 05:23:50;;;;;;;0.90;0.90;;;;;;;2.12;100.00;97467.53;4952603;29;20053;-94
2023/03/27 05:26:27;;;;;;;0.80;0.80;;;;;;;2.07;100.00;97450.63;4895774;29;20051;-93
2023/03/27 05:29:00;;;;;;;0.90;0.90;;;;;;;2.22;100.00;97476.81;4913352;29;20447;-93
2023/03/27 05:31:31;;;;;;;0.90;0.90;;;;;;;2.21;100.00;97462.69;4919934;29;20062;-93
2023/03/27 05:34:53;;;;;;;0.90;0.90;;;;;;;2.15;100.00;97447.63;4939302;29;20047;-94
2023/03/27 05:37:49;;;;;;;0.80;0.80;;;;;;;2.24;100.00;97474.75;4902536;29;20056;-94
2023/03/27 05:41:18;;;;;;;0.90;0.90;;;;;;;2.36;100.00;97487.03;4907834;29;20059;-92
2023/03/27 05:44:25;;;;;;;0.90;0.90;;;;;;;2.35;100.00;97476.59;4858724;29;20053;-95
2023/03/27 05:46:54;;;;;;;0.90;0.90;;;;;;;2.21;100.00;97453.91;4866596;29;20137;-94
2023/03/27 05:49:38;;;;;;;0.90;0.90;;;;;;;2.34;100.00;97477.66;4838676;29;20095;-91
2023/03/27 05:52:27;;;;;;;0.90;0.90;;;;;;;2.23;100.00;97460.63;4801016;29;20062;-93
2023/03/27 05:55:39;;;;;;;0.80;0.80;;;;;;;2.31;100.00;97491.44;4802685;30;20066;-94
2023/03/27 05:58:53;;;;;;;0.90;0.90;;;;;;;2.09;100.00;97475.16;4779540;30;20056;-95
2023/03/27 06:01:43;;;;;;;0.90;0.90;;;;;;;2.01;100.00;97473.63;4721055;30;20037;-93
2023/03/27 06:08:13;;;;;;;0.90;0.90;;;;;;;2.22;100.00;97500.78;5204159;23;20106;-95
2023/03/27 06:11:01;;;;;;;0.95;0.95;;;;;;;2.14;100.00;97478.75;4876889;29;20036;-95
2023/03/27 06:13:38;;;;;;;0.80;0.80;;;;;;;2.36;100.00;97504.88;4835118;29;20053;-93
2023/03/27 06:16:14;;;;;;;0.85;0.85;;;;;;;2.27;100.00;97483.06;4875123;29;20043;-93
2023/03/27 06:19:27;;;;;;;0.90;0.90;;;;;;;2.27;100.00;97498.25;4888481;29;20047;-93
2023/03/27 06:22:09;;;;;;;0.90;0.90;;;;;;;2.28;100.00;97502.50;4881849;29;20053;-93
2023/03/27 06:32:00;;;;;;;1.00;1.00;;;;;;;2.37;100.00;97520.59;5455272;23;20105;-94
2023/03/27 06:35:01;;;;;;;0.90;0.90;;;;;;;2.24;100.00;97512.81;5180374;23;20106;-93
2023/03/27 06:38:22;;;;;;;0.90;0.90;;;;;;;2.23;100.00;97497.06;3033571;27;20051;-94
2023/03/27 06:41:22;;;;;;;0.90;0.90;;;;;;;2.44;100.00;97527.69;4840513;29;20050;-95
2023/03/27 06:45:03;;;;;;;0.90;0.90;;;;;;;2.70;100.00;97531.78;4807723;29;20050;-96
2023/03/27 06:48:27;;;;;;;0.90;0.90;;;;;;;2.81;100.00;97526.47;4819317;29;20059;-94
2023/03/27 06:51:27;;;;;;;0.90;0.90;;;;;;;2.75;100.00;97499.94;4802803;29;20627;-95
2023/03/27 06:54:21;;;;;;;0.90;0.90;;;;;;;2.89;100.00;97517.31;4823157;29;20150;-94
2023/03/27 06:57:23;;;;;;;0.88;0.88;;;;;;;3.01;100.00;97527.97;4780504;30;20051;-95
2023/03/27 07:00:27;;;;;;;1.00;1.00;;;;;;;3.06;100.00;97527.28;4792473;30;20049;-95
2023/03/27 07:03:46;;;;;;;1.00;1.00;;;;;;;3.40;100.00;97525.66;4721540;30;20061;-95
2023/03/27 07:06:40;;;;;;;0.90;0.90;;;;;;;3.51;100.00;97505.31;4735695;30;20087;-95
2023/03/27 07:09:22;;;;;;;0.90;0.90;;;;;;;3.61;100.00;97534.88;4744151;30;20061;-94
2023/03/27 07:12:07;;;;;;;0.90;0.90;;;;;;;3.49;100.00;97502.88;4723928;30;20065;-95
2023/03/27 07:14:51;;;;;;;1.00;1.00;;;;;;;3.82;100.00;97528.91;4902663;23;20111;-94
2023/03/27 07:17:43;;;;;;;0.80;0.80;;;;;;;3.66;100.00;97510.97;4930846;29;20123;-95
2023/03/27 07:20:59;;;;;;;0.90;0.90;;;;;;;4.01;100.00;97534.06;4941181;29;20023;-95
2023/03/27 07:23:52;;;;;;;0.90;0.90;;;;;;;4.07;100.00;97522.44;4921840;29;20159;-95
2023/03/27 07:26:50;;;;;;;0.90;0.90;;;;;;;4.15;100.00;97505.22;4899902;29;20063;-93
2023/03/27 07:29:40;;;;;;;0.90;0.90;;;;;;;4.24;100.00;97503.78;4906608;29;20071;-94
2023/03/27 07:32:47;;;;;;;0.90;0.90;;;;;;;4.43;100.00;97512.38;4889784;29;20093;-95
2023/03/27 07:36:09;;;;;;;0.90;0.90;;;;;;;4.63;100.00;97526.06;4850381;29;20170;-95
2023/03/27 07:48:42;;;;;;;0.80;0.80;;;;;;;4.22;98.70;97533.38;4869724;23;20054;-95
2023/03/27 07:51:50;;;;;;;0.88;0.88;;;;;;;4.09;98.83;97523.81;4974671;28;20201;-94
2023/03/27 07:54:39;;;;;;;0.80;0.80;;;;;;;4.11;98.40;97508.38;4937038;29;20055;-94
2023/03/27 07:58:05;;;;;;;0.80;0.80;;;;;;;4.05;98.36;97508.50;4915185;29;20055;-94
2023/03/27 08:00:41;;;;;;;0.80;0.80;;;;;;;4.06;98.00;97516.28;4884115;29;20646;-94
2023/03/27 08:03:36;;;;;;;0.80;0.80;;;;;;;4.41;98.47;97495.81;4859792;29;20050;-93
2023/03/27 08:06:13;;;;;;;0.90;0.90;;;;;;;4.70;97.85;97532.06;4818396;29;20078;-94
2023/03/27 08:08:46;;;;;;;0.80;0.80;;;;;;;4.54;96.72;97522.19;4807618;29;20087;-94
2023/03/27 08:11:29;;;;;;;0.80;0.80;;;;;;;4.37;96.48;97508.81;4807883;29;20058;-93
2023/03/27 08:14:19;;;;;;;0.80;0.80;;;;;;;4.48;96.43;97521.31;4831114;29;20060;-94
2023/03/27 08:17:32;;;;;;;0.90;0.90;;;;;;;4.34;96.06;97526.13;4815858;29;20042;-95
2023/03/27 08:21:07;;;;;;;0.70;0.70;;;;;;;4.43;96.29;97534.56;5139511;23;20101;-95
2023/03/27 08:23:49;;;;;;;0.90;0.90;;;;;;;4.47;95.88;97516.19;4883351;29;20051;-94
2023/03/27 08:26:57;;;;;;;0.80;0.80;;;;;;;4.78;96.00;97536.19;4893238;29;20064;-94
2023/03/27 08:29:53;;;;;;;0.90;0.90;;;;;;;4.54;94.79;97514.97;4883594;29;20084;-95
2023/03/27 08:37:53;;;;;;;0.90;0.90;;;;;;;4.87;93.31;97536.63;5085383;23;20031;-96
2023/03/27 08:40:52;;;;;;;0.90;0.90;;;;;;;4.73;93.03;97506.72;4982403;23;20071;-96
2023/03/27 08:43:46;;;;;;;0.90;0.90;;;;;;;4.97;92.33;97532.25;4879469;29;20116;-96
2023/03/27 08:46:41;;;;;;;0.85;0.85;;;;;;;5.06;92.45;97529.16;4820604;29;20164;-95
2023/03/27 08:49:58;;;;;;;0.90;0.90;;;;;;;5.18;91.66;97544.03;4790108;29;20085;-94
2023/03/27 08:52:45;;;;;;;0.90;0.90;;;;;;;5.37;91.57;97554.50;4788268;29;20296;-94
2023/03/27 08:55:40;;;;;;;0.90;0.90;;;;;;;5.75;89.68;97534.13;4790722;29;20069;-94
2023/03/27 08:58:26;;;;;;;0.80;0.80;;;;;;;5.86;88.75;97554.59;4780506;29;20118;-93
2023/03/27 09:01:44;;;;;;;0.80;0.80;;;;;;;5.67;88.36;97550.59;4785791;30;20091;-93
2023/03/27 09:04:28;;;;;;;0.90;0.90;;;;;;;5.51;88.45;97547.72;4769284;30;20150;-94
2023/03/27 09:07:23;;;;;;;0.80;0.80;;;;;;;5.34;89.12;97561.13;4778456;30;20592;-93
2023/03/27 09:10:09;;;;;;;0.90;0.90;;;;;;;5.33;89.60;97562.19;4792423;30;20075;-95
2023/03/27 09:12:44;;;;;;;;;;;;;;;5.64;89.65;97555.38;4757355;30;20060;-94
2023/03/27 09:15:36;;;;;;;0.90;0.90;;;;;;;5.83;89.01;97553.22;4776409;30;19929;-94
2023/03/27 09:18:21;;;;;;;0.80;0.80;;;;;;;5.65;88.65;97538.28;4745414;30;20118;-94
2023/03/27 09:21:29;;;;;;;0.90;0.90;;;;;;;5.96;87.91;97568.13;4763928;30;20131;-95
2023/03/27 09:24:29;;;;;;;0.90;0.90;;;;;;;6.20;87.28;97566.00;4742151;30;20056;-93
2023/03/27 09:27:25;;;;;;;0.90;0.90;;;;;;;6.10;86.32;97544.44;4775478;29;20074;-93
2023/03/27 09:34:25;;;;;;;0.90;0.90;;;;;;;6.12;85.33;97563.75;5165415;23;20062;-88
2023/03/27 09:36:58;;;;;;;1.00;1.00;;;;;;;6.24;85.56;97536.81;4906417;29;20047;-94
2023/03/27 09:39:33;;;;;;;0.90;0.90;;;;;;;7.15;82.45;97544.84;4891525;29;20857;-94
2023/03/27 09:42:28;;;;;;;1.00;1.00;;;;;;;8.11;77.89;97559.03;4884642;29;20072;-94
2023/03/27 09:45:10;;;;;;;0.80;0.80;;;;;;;7.69;77.87;97554.56;4898885;29;20058;-94
2023/03/27 09:48:00;;;;;;;0.79;0.79;;;;;;;7.08;78.81;97564.91;4659082;23;10002766;-91
2023/03/27 09:50:46;;;;;;;0.80;0.80;;;;;;;6.71;80.63;97555.78;4941491;29;20055;-87
2023/03/27 09:53:31;;;;;;;0.80;0.80;;;;;;;6.80;81.39;97555.31;4906989;29;20490;-91
2023/03/27 09:56:12;;;;;;;0.70;0.70;;;;;;;6.92;81.96;97570.16;4955810;29;20047;-91
2023/03/27 09:59:23;;;;;;;0.80;0.80;;;;;;;6.76;81.90;97564.91;4952588;29;20046;-90
2023/03/27 10:01:57;;;;;;;0.80;0.80;;;;;;;7.23;81.54;97575.75;4924610;29;20095;-93
2023/03/27 10:04:29;;;;;;;0.80;0.80;;;;;;;7.23;79.55;97566.91;4915555;29;20106;-93
2023/03/27 10:07:07;;;;;;;0.90;0.90;;;;;;;7.41;79.62;97563.00;4920715;29;20221;-90
2023/03/27 10:10:04;;;;;;;0.90;0.90;;;;;;;8.16;78.33;97575.19;4922477;29;20067;-93
2023/03/27 10:12:39;;;;;;;0.80;0.80;;;;;;;8.20;76.37;97562.84;4923053;29;20052;-92
2023/03/27 10:15:28;;;;;;;0.88;0.88;;;;;;;8.32;75.30;97576.03;4923566;29;20090;-91
2023/03/27 10:18:28;;;;;;;0.82;0.82;;;;;;;8.17;75.11;97586.72;4928201;29;20079;-93
2023/03/27 10:21:38;;;;;;;0.88;0.88;;;;;;;7.64;75.74;97561.78;4905304;29;20051;-93
2023/03/27 10:24:33;;;;;;;0.90;0.90;;;;;;;7.59;76.40;97562.56;4931038;29;20043;-91
2023/03/27 10:27:30;;;;;;;0.80;0.80;;;;;;;7.84;75.75;97580.69;4915863;29;20142;-94
2023/03/27 10:30:45;;;;;;;0.90;0.90;;;;;;;7.72;76.11;97572.84;4901328;29;20052;-91
2023/03/27 10:33:40;;;;;;;0.80;0.80;;;;;;;7.60;76.47;97565.00;4883518;29;20060;-90
2023/03/27 10:36:16;;;;;;;0.80;0.80;;;;;;;7.52;76.94;97576.22;4874101;29;20052;-90
2023/03/27 10:38:53;;;;;;;0.80;0.80;;;;;;;7.45;77.22;97582.91;4869446;29;20056;-90
2023/03/27 10:41:29;;;;;;;0.80;0.80;;;;;;;7.37;77.96;97595.72;4900009;29;20088;-87
2023/03/27 10:44:01;;;;;;;0.80;0.80;;;;;;;7.34;79.06;97606.97;4883887;29;20055;-85
2023/03/27 10:46:29;;;;;;;0.80;0.80;;;;;;;7.22;78.42;97597.50;4841251;29;20528;-89
2023/03/27 10:49:35;;;;;;;0.70;0.70;;;;;;;7.23;79.36;97602.59;4872699;29;20065;-88
2023/03/27 10:52:13;;;;;;;0.80;0.80;;;;;;;7.29;79.44;97612.31;4872658;29;20045;-87
2023/03/27 10:55:11;;;;;;;0.70;0.70;;;;;;;7.12;79.35;97603.59;4877185;29;20061;-87
2023/03/27 10:57:41;;;;;;;0.80;0.80;;;;;;;7.13;79.81;97606.00;4860520;29;20368;-90
2023/03/27 11:00:12;;;;;;;0.80;0.80;;;;;;;7.35;79.82;97618.53;4875243;29;20052;-88
2023/03/27 11:03:04;;;;;;;0.80;0.80;;;;;;;7.63;79.43;97613.88;4876780;29;20053;-88
2023/03/27 11:05:46;;;;;;;0.70;0.70;;;;;;;7.66;79.29;97619.53;4913526;29;20151;-86
2023/03/27 11:08:42;;;;;;;0.70;0.70;;;;;;;7.57;79.15;97623.75;4913676;29;20063;-92
2023/03/27 11:11:16;;;;;;;0.70;0.70;;;;;;;7.24;80.10;97632.91;4915628;29;20055;-89
2023/03/27 11:14:02;;;;;;;0.70;0.70;;;;;;;6.98;81.25;97632.69;4796619;29;20153;-91
2023/03/27 11:16:35;;;;;;;0.70;0.70;;;;;;;6.79;82.26;97629.59;4784942;29;20058;-90
2023/03/27 11:19:32;;;;;;;0.70;0.70;;;;;;;6.88;82.42;97628.03;4788734;29;20209;-91
2023/03/27 11:22:31;;;;;;;0.75;0.75;;;;;;;6.68;82.70;97615.28;4771160;30;20719;-92
2023/03/27 11:25:10;;;;;;;0.77;0.77;;;;;;;6.63;83.24;97627.78;4772367;30;20503;-90
2023/03/27 11:27:47;;;;;;;0.80;0.80;;;;;;;6.54;84.19;97605.22;4799688;29;20055;-93
2023/03/27 11:30:31;;;;;;;0.80;0.80;;;;;;;6.86;83.76;97643.59;4806400;29;20062;-92
2023/03/27 11:33:04;;;;;;;0.70;0.70;;;;;;;6.84;83.26;97640.34;4787593;29;20065;-91
2023/03/27 11:35:39;;;;;;;0.70;0.70;;;;;;;6.78;83.59;97635.19;4802936;29;20527;-92
2023/03/27 11:38:31;;;;;;;0.70;0.70;;;;;;;6.66;83.91;97633.47;4796286;29;20480;-92
2023/03/27 11:41:02;;;;;;;0.80;0.80;;;;;;;6.63;84.44;97633.16;4797777;29;20073;-93
2023/03/27 11:43:39;;;;;;;0.70;0.70;;;;;;;6.54;84.88;97624.78;4798536;29;20050;-92
2023/03/27 11:46:43;;;;;;;0.70;0.70;;;;;;;6.51;85.33;97652.88;4795736;29;20062;-93
2023/03/27 11:49:13;;;;;;;0.70;0.70;;;;;;;6.47;85.86;97651.75;4828415;29;20066;-93
2023/03/27 11:52:04;;;;;;;0.65;0.65;;;;;;;6.32;86.26;97632.81;4846810;29;20465;-90
2023/03/27 11:54:52;;;;;;;0.70;0.70;;;;;;;6.44;86.81;97651.47;4835248;29;20053;-93
2023/03/27 11:57:25;;;;;;;0.80;0.80;;;;;;;6.61;86.91;97662.09;4842477;29;20149;-94
2023/03/27 12:00:24;;;;;;;0.70;0.70;;;;;;;6.63;86.34;97641.19;4855341;29;20465;-91
2023/03/27 12:03:05;;;;;;;0.70;0.70;;;;;;;6.70;85.83;97661.38;4855051;29;20113;-92
2023/03/27 12:05:47;;;;;;;0.70;0.70;;;;;;;6.81;85.62;97666.84;4851428;29;20061;-91
2023/03/27 12:08:41;;;;;;;0.90;0.90;;;;;;;7.08;84.70;97656.94;4864849;29;20053;-90
2023/03/27 12:11:12;;;;;;;0.70;0.70;;;;;;;7.30;83.42;97651.50;4846843;29;20165;-94
2023/03/27 12:14:16;;;;;;;0.70;0.70;;;;;;;7.15;83.13;97649.47;4842586;29;20056;-92
2023/03/27 12:17:19;;;;;;;0.90;0.90;;;;;;;7.34;83.32;97660.66;4878104;29;20064;-91
2023/03/27 12:19:57;;;;;;;0.70;0.70;;;;;;;7.40;82.57;97658.00;4856955;29;20056;-90
2023/03/27 12:23:00;;;;;;;0.80;0.80;;;;;;;7.72;81.85;97657.97;4871791;29;20707;-94
2023/03/27 12:27:04;;;;;;;0.70;0.70;;;;;;;7.84;80.05;97660.47;5019624;23;20223;-93
2023/03/27 12:31:46;;;;;;;0.80;0.80;;;;;;;7.75;80.46;97665.53;5000202;23;20054;-94
2023/03/27 12:34:53;;;;;;;0.80;0.80;;;;;;;7.33;80.69;97637.56;4844242;29;20411;-96
2023/03/27 12:38:15;;;;;;;0.70;0.70;;;;;;;7.24;81.82;97665.94;4851620;29;20074;-95
2023/03/27 12:41:38;;;;;;;0.80;0.80;;;;;;;6.93;82.63;97662.97;4800368;29;20058;-95
2023/03/27 12:45:10;;;;;;;0.60;0.60;;;;;;;6.67;84.06;97669.94;4762284;30;20056;-93
2023/03/27 12:48:17;;;;;;;0.63;0.63;;;;;;;6.42;85.05;97657.06;4772600;30;20060;-93
2023/03/27 12:51:50;;;;;;;0.80;0.80;;;;;;;6.62;85.44;97675.25;4741809;30;20533;-91
2023/03/27 12:55:17;;;;;;;0.77;0.77;;;;;;;6.56;85.63;97686.16;4723507;30;20061;-90
2023/03/27 12:57:56;;;;;;;0.70;0.70;;;;;;;6.47;85.03;97683.91;4738743;30;20072;-93
2023/03/27 13:00:58;;;;;;;0.70;0.70;;;;;;;6.54;84.32;97658.81;4728956;30;20763;-93
2023/03/27 13:04:10;;;;;;;0.90;0.90;;;;;;;7.55;81.92;97693.03;4726717;30;20053;-87
2023/03/27 13:06:40;;;;;;;0.80;0.80;;;;;;;8.34;78.11;97683.28;4715600;30;20127;-91
2023/03/27 13:09:35;;;;;;;0.70;0.70;;;;;;;7.86;78.00;97688.69;4745915;30;20060;-91
2023/03/27 13:12:27;;;;;;;0.73;0.73;;;;;;;7.73;78.75;97689.94;4724526;30;20082;-93
2023/03/27 13:15:34;;;;;;;0.90;0.90;;;;;;;8.19;77.36;97692.91;4708900;30;20142;-91
2023/03/27 13:18:26;;;;;;;1.50;1.40;;;;;;;9.77;70.62;97697.03;4724382;30;20049;-94
2023/03/27 13:21:17;;;;;;;1.30;1.20;;;;;;;11.65;62.68;97704.59;4716970;30;20064;-91
2023/03/27 13:24:54;;;;;;;0.80;0.80;;;;;;;11.40;59.20;97697.47;4732476;30;20033;-90
2023/03/27 13:27:58;;;;;;;1.50;1.40;;;;;;;11.41;61.01;97696.38;4705643;30;20153;-93
2023/03/27 13:30:50;;;;;;;0.70;0.70;;;;;;;9.73;62.44;97688.69;4701785;30;20156;-92
2023/03/27 13:33:45;;;;;;;0.70;0.70;;;;;;;8.39;66.93;97696.75;4699928;30;20066;-92
2023/03/27 13:36:45;;;;;;;0.60;0.60;;;;;;;7.66;69.33;97685.84;4866395;23;20055;-93
2023/03/27 13:39:23;;;;;;;0.60;0.60;;;;;;;7.27;71.73;97684.22;4926757;29;20430;-89
2023/03/27 13:42:32;;;;;;;0.60;0.60;;;;;;;7.07;72.92;97695.56;4918497;29;20057;-94